sensor_id;sensor_type;location;lat;lon;timestamp;pressure;altitude;pressure_sealevel;temperature;humidity
56912;BME280;42800;53.928;27.662;2022-12-07T00:01:17;99297.25;;;-5.34;100.00
56912;BME280;42800;53.928;27.662;2022-12-07T00:03:45;99292.34;;;-5.05;100.00
56912;BME280;42800;53.928;27.662;2022-12-07T00:06:13;99291.94;;;-4.86;100.00
56912;BME280;42800;53.928;27.662;2022-12-07T00:08:39;99301.00;;;-4.87;100.00
56912;BME280;42800;53.928;27.662;2022-12-07T00:11:08;99323.25;;;-5.24;100.00
56912;BME280;42800;53.928;27.662;2022-12-07T00:13:36;99317.66;;;-5.17;100.00
56912;BME280;42800;53.928;27.662;2022-12-07T00:16:04;99313.56;;;-5.30;100.00
56912;BME280;42800;53.928;27.662;2022-12-07T00:18:30;99312.03;;;-5.21;100.00
56912;BME280;42800;53.928;27.662;2022-12-07T00:20:59;99311.06;;;-5.47;100.00
56912;BME280;42800;53.928;27.662;2022-12-07T00:23:27;99296.72;;;-5.36;100.00
56912;BME280;42800;53.928;27.662;2022-12-07T00:25:53;99290.38;;;-5.25;100.00
56912;BME280;42800;53.928;27.662;2022-12-07T00:28:19;99287.91;;;-5.36;100.00
56912;BME280;42800;53.928;27.662;2022-12-07T00:30:46;99288.41;;;-5.39;100.00
56912;BME280;42800;53.928;27.662;2022-12-07T00:33:12;99283.22;;;-5.14;100.00
56912;BME280;42800;53.928;27.662;2022-12-07T00:35:39;99288.44;;;-5.34;100.00
56912;BME280;42800;53.928;27.662;2022-12-07T00:38:05;99288.72;;;-5.36;100.00
56912;BME280;42800;53.928;27.662;2022-12-07T00:40:31;99283.78;;;-5.07;100.00
56912;BME280;42800;53.928;27.662;2022-12-07T00:42:57;99284.91;;;-5.40;100.00
56912;BME280;42800;53.928;27.662;2022-12-07T00:45:24;99278.47;;;-5.44;100.00
56912;BME280;42800;53.928;27.662;2022-12-07T00:47:51;99263.84;;;-5.36;100.00
56912;BME280;42800;53.928;27.662;2022-12-07T00:50:17;99254.94;;;-5.47;100.00
56912;BME280;42800;53.928;27.662;2022-12-07T00:52:43;99256.03;;;-5.48;100.00
56912;BME280;42800;53.928;27.662;2022-12-07T00:55:09;99244.94;;;-5.25;100.00
56912;BME280;42800;53.928;27.662;2022-12-07T00:57:36;99248.34;;;-5.39;100.00
56912;BME280;42800;53.928;27.662;2022-12-07T01:00:03;99242.94;;;-4.97;100.00
56912;BME280;42800;53.928;27.662;2022-12-07T01:02:29;99259.72;;;-5.12;100.00
56912;BME280;42800;53.928;27.662;2022-12-07T01:04:56;99259.28;;;-4.88;100.00
56912;BME280;42800;53.928;27.662;2022-12-07T01:07:22;99287.69;;;-5.30;100.00
56912;BME280;42800;53.928;27.662;2022-12-07T01:09:49;99289.66;;;-5.52;100.00
56912;BME280;42800;53.928;27.662;2022-12-07T01:12:15;99280.31;;;-5.07;100.00
56912;BME280;42800;53.928;27.662;2022-12-07T01:14:42;99282.34;;;-5.30;100.00
56912;BME280;42800;53.928;27.662;2022-12-07T01:17:08;99281.50;;;-5.35;100.00
56912;BME280;42800;53.928;27.662;2022-12-07T01:19:34;99285.00;;;-5.30;100.00
56912;BME280;42800;53.928;27.662;2022-12-07T01:22:01;99279.56;;;-5.45;100.00
56912;BME280;42800;53.928;27.662;2022-12-07T01:24:27;99260.56;;;-5.01;100.00
56912;BME280;42800;53.928;27.662;2022-12-07T01:26:53;99266.19;;;-5.03;100.00
56912;BME280;42800;53.928;27.662;2022-12-07T01:29:20;99269.66;;;-5.02;100.00
56912;BME280;42800;53.928;27.662;2022-12-07T01:31:48;99271.16;;;-5.16;100.00
56912;BME280;42800;53.928;27.662;2022-12-07T01:34:15;99278.53;;;-5.34;100.00
56912;BME280;42800;53.928;27.662;2022-12-07T01:36:42;99271.38;;;-5.28;100.00
56912;BME280;42800;53.928;27.662;2022-12-07T01:39:09;99273.75;;;-5.32;100.00
56912;BME280;42800;53.928;27.662;2022-12-07T01:41:38;99275.63;;;-5.32;100.00
56912;BME280;42800;53.928;27.662;2022-12-07T01:44:21;99269.19;;;-5.36;100.00
56912;BME280;42800;53.928;27.662;2022-12-07T01:46:48;99268.59;;;-5.44;100.00
56912;BME280;42800;53.928;27.662;2022-12-07T01:49:21;99266.31;;;-5.25;100.00
56912;BME280;42800;53.928;27.662;2022-12-07T01:51:49;99272.75;;;-5.21;100.00
56912;BME280;42800;53.928;27.662;2022-12-07T01:54:20;99271.50;;;-5.08;100.00
56912;BME280;42800;53.928;27.662;2022-12-07T01:56:49;99274.44;;;-5.04;100.00
56912;BME280;42800;53.928;27.662;2022-12-07T01:59:18;99290.75;;;-5.06;100.00
56912;BME280;42800;53.928;27.662;2022-12-07T02:01:46;99295.13;;;-5.32;100.00
56912;BME280;42800;53.928;27.662;2022-12-07T02:04:12;99282.56;;;-5.31;100.00
56912;BME280;42800;53.928;27.662;2022-12-07T02:06:39;99265.44;;;-4.93;100.00
56912;BME280;42800;53.928;27.662;2022-12-07T02:09:07;99289.28;;;-5.29;100.00
56912;BME280;42800;53.928;27.662;2022-12-07T02:11:34;99279.75;;;-5.14;100.00
56912;BME280;42800;53.928;27.662;2022-12-07T02:14:01;99272.00;;;-5.11;100.00
56912;BME280;42800;53.928;27.662;2022-12-07T02:16:33;99268.75;;;-5.23;100.00
56912;BME280;42800;53.928;27.662;2022-12-07T02:19:21;99248.75;;;-5.15;100.00
56912;BME280;42800;53.928;27.662;2022-12-07T02:22:02;99250.63;;;-5.11;100.00
56912;BME280;42800;53.928;27.662;2022-12-07T02:24:48;99247.00;;;-5.37;100.00
56912;BME280;42800;53.928;27.662;2022-12-07T02:27:36;99229.91;;;-5.36;100.00
56912;BME280;42800;53.928;27.662;2022-12-07T02:30:05;99209.94;;;-5.23;100.00
56912;BME280;42800;53.928;27.662;2022-12-07T02:32:41;99214.41;;;-5.34;100.00
56912;BME280;42800;53.928;27.662;2022-12-07T02:35:12;99209.34;;;-5.30;100.00
56912;BME280;42800;53.928;27.662;2022-12-07T02:37:43;99192.19;;;-4.77;100.00
56912;BME280;42800;53.928;27.662;2022-12-07T02:40:19;99211.50;;;-5.32;100.00
56912;BME280;42800;53.928;27.662;2022-12-07T02:42:50;99207.53;;;-5.25;100.00
56912;BME280;42800;53.928;27.662;2022-12-07T02:45:25;99227.19;;;-5.46;100.00
56912;BME280;42800;53.928;27.662;2022-12-07T02:47:56;99207.66;;;-5.52;100.00
56912;BME280;42800;53.928;27.662;2022-12-07T02:50:24;99185.97;;;-5.03;100.00
56912;BME280;42800;53.928;27.662;2022-12-07T02:52:51;99196.56;;;-5.28;100.00
56912;BME280;42800;53.928;27.662;2022-12-07T02:55:20;99195.16;;;-5.41;100.00
56912;BME280;42800;53.928;27.662;2022-12-07T02:57:58;99200.16;;;-4.97;100.00
56912;BME280;42800;53.928;27.662;2022-12-07T03:00:31;99191.16;;;-5.38;100.00
56912;BME280;42800;53.928;27.662;2022-12-07T03:03:03;99182.81;;;-5.52;100.00
56912;BME280;42800;53.928;27.662;2022-12-07T03:05:44;99173.56;;;-5.29;100.00
56912;BME280;42800;53.928;27.662;2022-12-07T03:08:20;99165.28;;;-5.33;100.00
56912;BME280;42800;53.928;27.662;2022-12-07T03:10:54;99154.22;;;-5.47;100.00
56912;BME280;42800;53.928;27.662;2022-12-07T03:13:28;99146.59;;;-5.23;100.00
56912;BME280;42800;53.928;27.662;2022-12-07T03:16:01;99147.38;;;-5.27;100.00
56912;BME280;42800;53.928;27.662;2022-12-07T03:18:31;99147.41;;;-5.17;100.00
56912;BME280;42800;53.928;27.662;2022-12-07T03:21:10;99132.88;;;-5.47;100.00
56912;BME280;42800;53.928;27.662;2022-12-07T03:23:39;99128.16;;;-5.24;100.00
56912;BME280;42800;53.928;27.662;2022-12-07T03:26:09;99128.97;;;-5.18;100.00
56912;BME280;42800;53.928;27.662;2022-12-07T03:28:42;99137.47;;;-5.32;100.00
56912;BME280;42800;53.928;27.662;2022-12-07T03:31:14;99128.91;;;-5.39;100.00
56912;BME280;42800;53.928;27.662;2022-12-07T03:33:49;99136.16;;;-5.29;100.00
56912;BME280;42800;53.928;27.662;2022-12-07T03:36:21;99132.44;;;-5.23;100.00
56912;BME280;42800;53.928;27.662;2022-12-07T03:38:57;99118.75;;;-5.42;100.00
56912;BME280;42800;53.928;27.662;2022-12-07T03:41:29;99120.38;;;-5.31;100.00
56912;BME280;42800;53.928;27.662;2022-12-07T03:43:57;99106.53;;;-5.23;100.00
56912;BME280;42800;53.928;27.662;2022-12-07T03:46:32;99102.84;;;-5.06;100.00
56912;BME280;42800;53.928;27.662;2022-12-07T03:49:07;99108.75;;;-4.79;100.00
56912;BME280;42800;53.928;27.662;2022-12-07T03:51:39;99138.09;;;-5.04;100.00
56912;BME280;42800;53.928;27.662;2022-12-07T03:54:10;99141.06;;;-5.01;100.00
56912;BME280;42800;53.928;27.662;2022-12-07T03:56:38;99140.94;;;-5.31;100.00
56912;BME280;42800;53.928;27.662;2022-12-07T03:59:04;99142.06;;;-5.17;100.00
56912;BME280;42800;53.928;27.662;2022-12-07T04:01:32;99135.69;;;-5.16;100.00
56912;BME280;42800;53.928;27.662;2022-12-07T04:03:58;99137.59;;;-5.06;100.00
56912;BME280;42800;53.928;27.662;2022-12-07T04:06:25;99148.44;;;-5.28;100.00
56912;BME280;42800;53.928;27.662;2022-12-07T04:08:51;99139.34;;;-5.27;100.00
56912;BME280;42800;53.928;27.662;2022-12-07T04:11:17;99127.88;;;-5.28;100.00
56912;BME280;42800;53.928;27.662;2022-12-07T04:13:44;99117.50;;;-5.04;100.00
56912;BME280;42800;53.928;27.662;2022-12-07T04:16:37;99131.34;;;-5.27;100.00
56912;BME280;42800;53.928;27.662;2022-12-07T04:19:04;99117.19;;;-5.33;100.00
56912;BME280;42800;53.928;27.662;2022-12-07T04:21:30;99111.66;;;-4.95;100.00
56912;BME280;42800;53.928;27.662;2022-12-07T04:23:56;99110.81;;;-5.11;100.00
56912;BME280;42800;53.928;27.662;2022-12-07T04:26:22;99102.00;;;-5.07;100.00
56912;BME280;42800;53.928;27.662;2022-12-07T04:28:49;99107.50;;;-5.44;100.00
56912;BME280;42800;53.928;27.662;2022-12-07T04:31:15;99086.75;;;-5.16;100.00
56912;BME280;42800;53.928;27.662;2022-12-07T04:33:42;99091.91;;;-4.89;100.00
56912;BME280;42800;53.928;27.662;2022-12-07T04:36:08;99099.09;;;-4.95;100.00
56912;BME280;42800;53.928;27.662;2022-12-07T04:38:35;99100.44;;;-5.03;100.00
56912;BME280;42800;53.928;27.662;2022-12-07T04:41:04;99105.00;;;-4.88;100.00
56912;BME280;42800;53.928;27.662;2022-12-07T04:43:31;99104.41;;;-5.10;100.00
56912;BME280;42800;53.928;27.662;2022-12-07T04:45:57;99122.59;;;-5.07;100.00
56912;BME280;42800;53.928;27.662;2022-12-07T04:48:24;99122.28;;;-5.21;100.00
56912;BME280;42800;53.928;27.662;2022-12-07T04:50:51;99121.25;;;-5.15;100.00
56912;BME280;42800;53.928;27.662;2022-12-07T04:53:17;99117.56;;;-4.78;100.00
56912;BME280;42800;53.928;27.662;2022-12-07T04:55:43;99135.72;;;-5.06;100.00
56912;BME280;42800;53.928;27.662;2022-12-07T04:58:10;99133.06;;;-4.90;100.00
56912;BME280;42800;53.928;27.662;2022-12-07T05:00:36;99132.53;;;-4.77;100.00
56912;BME280;42800;53.928;27.662;2022-12-07T05:03:03;99141.44;;;-4.56;100.00
56912;BME280;42800;53.928;27.662;2022-12-07T05:05:29;99153.72;;;-4.60;100.00
56912;BME280;42800;53.928;27.662;2022-12-07T05:07:56;99156.09;;;-4.79;100.00
56912;BME280;42800;53.928;27.662;2022-12-07T05:10:22;99164.63;;;-4.92;100.00
56912;BME280;42800;53.928;27.662;2022-12-07T05:12:49;99159.53;;;-4.89;100.00
56912;BME280;42800;53.928;27.662;2022-12-07T05:15:16;99158.13;;;-5.07;100.00
56912;BME280;42800;53.928;27.662;2022-12-07T05:17:42;99149.38;;;-4.87;100.00
56912;BME280;42800;53.928;27.662;2022-12-07T05:20:09;99148.31;;;-4.91;100.00
56912;BME280;42800;53.928;27.662;2022-12-07T05:22:35;99144.28;;;-4.99;100.00
56912;BME280;42800;53.928;27.662;2022-12-07T05:25:03;99141.88;;;-4.95;100.00
56912;BME280;42800;53.928;27.662;2022-12-07T05:27:29;99137.63;;;-4.81;100.00
56912;BME280;42800;53.928;27.662;2022-12-07T05:29:55;99126.94;;;-4.76;100.00
56912;BME280;42800;53.928;27.662;2022-12-07T05:32:22;99130.91;;;-4.93;100.00
56912;BME280;42800;53.928;27.662;2022-12-07T05:34:48;99137.88;;;-4.87;100.00
56912;BME280;42800;53.928;27.662;2022-12-07T05:37:14;99126.44;;;-4.62;100.00
56912;BME280;42800;53.928;27.662;2022-12-07T05:39:41;99131.19;;;-4.85;100.00
56912;BME280;42800;53.928;27.662;2022-12-07T05:42:10;99124.50;;;-4.92;100.00
56912;BME280;42800;53.928;27.662;2022-12-07T05:44:39;99124.47;;;-5.08;100.00
56912;BME280;42800;53.928;27.662;2022-12-07T05:47:06;99112.00;;;-4.56;100.00
56912;BME280;42800;53.928;27.662;2022-12-07T05:49:32;99117.03;;;-4.95;100.00
56912;BME280;42800;53.928;27.662;2022-12-07T05:51:59;99103.66;;;-4.85;100.00
56912;BME280;42800;53.928;27.662;2022-12-07T05:54:25;99095.13;;;-4.72;100.00
56912;BME280;42800;53.928;27.662;2022-12-07T05:56:51;99103.41;;;-4.63;100.00
56912;BME280;42800;53.928;27.662;2022-12-07T05:59:18;99107.13;;;-4.90;100.00
56912;BME280;42800;53.928;27.662;2022-12-07T06:01:53;99101.00;;;-4.75;100.00
56912;BME280;42800;53.928;27.662;2022-12-07T06:04:21;99097.53;;;-4.86;100.00
56912;BME280;42800;53.928;27.662;2022-12-07T06:06:47;99102.34;;;-4.83;100.00
56912;BME280;42800;53.928;27.662;2022-12-07T06:09:15;99099.63;;;-4.88;100.00
56912;BME280;42800;53.928;27.662;2022-12-07T06:11:42;99086.81;;;-4.91;100.00
56912;BME280;42800;53.928;27.662;2022-12-07T06:14:26;99085.47;;;-4.83;100.00
56912;BME280;42800;53.928;27.662;2022-12-07T06:16:53;99087.31;;;-4.94;100.00
56912;BME280;42800;53.928;27.662;2022-12-07T06:19:19;99079.06;;;-4.82;100.00
56912;BME280;42800;53.928;27.662;2022-12-07T06:21:45;99079.03;;;-5.08;100.00
56912;BME280;42800;53.928;27.662;2022-12-07T06:24:13;99076.59;;;-5.14;100.00
56912;BME280;42800;53.928;27.662;2022-12-07T06:26:40;99067.81;;;-4.84;100.00
56912;BME280;42800;53.928;27.662;2022-12-07T06:29:06;99073.44;;;-4.96;100.00
56912;BME280;42800;53.928;27.662;2022-12-07T06:31:35;99061.13;;;-4.87;100.00
56912;BME280;42800;53.928;27.662;2022-12-07T06:34:03;99060.56;;;-5.04;100.00
56912;BME280;42800;53.928;27.662;2022-12-07T06:36:30;99053.38;;;-4.78;100.00
56912;BME280;42800;53.928;27.662;2022-12-07T06:38:56;99054.72;;;-4.70;100.00
56912;BME280;42800;53.928;27.662;2022-12-07T06:41:23;99075.28;;;-5.02;100.00
56912;BME280;42800;53.928;27.662;2022-12-07T06:43:50;99063.81;;;-4.82;100.00
56912;BME280;42800;53.928;27.662;2022-12-07T06:46:16;99060.88;;;-4.75;100.00
56912;BME280;42800;53.928;27.662;2022-12-07T06:48:43;99059.28;;;-4.71;100.00
56912;BME280;42800;53.928;27.662;2022-12-07T06:51:10;99055.78;;;-5.02;100.00
56912;BME280;42800;53.928;27.662;2022-12-07T06:53:36;99055.53;;;-4.95;100.00
56912;BME280;42800;53.928;27.662;2022-12-07T06:56:03;99030.38;;;-4.74;100.00
56912;BME280;42800;53.928;27.662;2022-12-07T06:58:30;99029.59;;;-4.80;100.00
56912;BME280;42800;53.928;27.662;2022-12-07T07:00:56;99043.19;;;-4.97;100.00
56912;BME280;42800;53.928;27.662;2022-12-07T07:03:24;99015.69;;;-5.02;100.00
56912;BME280;42800;53.928;27.662;2022-12-07T07:05:51;99016.75;;;-5.08;100.00
56912;BME280;42800;53.928;27.662;2022-12-07T07:08:17;98994.03;;;-4.95;100.00
56912;BME280;42800;53.928;27.662;2022-12-07T07:10:43;98992.44;;;-4.76;100.00
56912;BME280;42800;53.928;27.662;2022-12-07T07:13:10;98990.81;;;-4.82;100.00
56912;BME280;42800;53.928;27.662;2022-12-07T07:15:37;98986.53;;;-4.88;100.00
56912;BME280;42800;53.928;27.662;2022-12-07T07:18:04;98978.25;;;-4.92;100.00
56912;BME280;42800;53.928;27.662;2022-12-07T07:20:30;98965.38;;;-4.64;100.00
56912;BME280;42800;53.928;27.662;2022-12-07T07:22:58;98982.78;;;-4.77;100.00
56912;BME280;42800;53.928;27.662;2022-12-07T07:25:24;98967.03;;;-4.89;100.00
56912;BME280;42800;53.928;27.662;2022-12-07T07:27:50;98964.06;;;-4.87;100.00
56912;BME280;42800;53.928;27.662;2022-12-07T07:30:17;98949.84;;;-4.57;100.00
56912;BME280;42800;53.928;27.662;2022-12-07T07:32:43;98971.81;;;-4.70;100.00
56912;BME280;42800;53.928;27.662;2022-12-07T07:35:10;98980.38;;;-4.79;100.00
56912;BME280;42800;53.928;27.662;2022-12-07T07:37:36;98967.81;;;-4.68;100.00
56912;BME280;42800;53.928;27.662;2022-12-07T07:40:04;98964.84;;;-4.61;100.00
56912;BME280;42800;53.928;27.662;2022-12-07T07:42:30;98974.97;;;-4.38;100.00
56912;BME280;42800;53.928;27.662;2022-12-07T07:44:57;98991.63;;;-4.66;100.00
56912;BME280;42800;53.928;27.662;2022-12-07T07:47:23;98989.22;;;-4.63;100.00
56912;BME280;42800;53.928;27.662;2022-12-07T07:49:49;98984.91;;;-4.48;100.00
56912;BME280;42800;53.928;27.662;2022-12-07T07:52:16;98984.31;;;-4.25;100.00
56912;BME280;42800;53.928;27.662;2022-12-07T07:54:42;99001.50;;;-4.52;100.00
56912;BME280;42800;53.928;27.662;2022-12-07T07:57:09;98999.06;;;-4.48;100.00
56912;BME280;42800;53.928;27.662;2022-12-07T07:59:35;99012.44;;;-4.63;100.00
56912;BME280;42800;53.928;27.662;2022-12-07T08:02:02;99003.91;;;-4.55;100.00
56912;BME280;42800;53.928;27.662;2022-12-07T08:04:28;99008.16;;;-4.44;100.00
56912;BME280;42800;53.928;27.662;2022-12-07T08:06:54;99024.25;;;-4.75;100.00
56912;BME280;42800;53.928;27.662;2022-12-07T08:09:21;99017.56;;;-4.82;100.00
56912;BME280;42800;53.928;27.662;2022-12-07T08:11:47;99012.72;;;-4.55;100.00
56912;BME280;42800;53.928;27.662;2022-12-07T08:14:14;99010.28;;;-4.41;100.00
56912;BME280;42800;53.928;27.662;2022-12-07T08:16:40;99011.94;;;-4.55;100.00
56912;BME280;42800;53.928;27.662;2022-12-07T08:19:07;99015.13;;;-4.33;100.00
56912;BME280;42800;53.928;27.662;2022-12-07T08:21:33;99029.03;;;-4.51;100.00
56912;BME280;42800;53.928;27.662;2022-12-07T08:23:59;99011.94;;;-4.70;100.00
56912;BME280;42800;53.928;27.662;2022-12-07T08:26:25;99019.41;;;-4.42;100.00
56912;BME280;42800;53.928;27.662;2022-12-07T08:28:52;99015.69;;;-4.82;100.00
56912;BME280;42800;53.928;27.662;2022-12-07T08:31:19;99011.69;;;-4.79;100.00
56912;BME280;42800;53.928;27.662;2022-12-07T08:33:46;99004.72;;;-4.65;100.00
56912;BME280;42800;53.928;27.662;2022-12-07T08:36:13;99002.53;;;-4.47;100.00
56912;BME280;42800;53.928;27.662;2022-12-07T08:38:40;99003.91;;;-4.60;100.00
56912;BME280;42800;53.928;27.662;2022-12-07T08:41:07;98995.09;;;-4.71;100.00
56912;BME280;42800;53.928;27.662;2022-12-07T08:43:34;98991.63;;;-4.82;100.00
56912;BME280;42800;53.928;27.662;2022-12-07T08:46:06;98989.22;;;-4.63;100.00
56912;BME280;42800;53.928;27.662;2022-12-07T08:48:36;98996.69;;;-4.70;100.00
56912;BME280;42800;53.928;27.662;2022-12-07T08:51:03;98986.28;;;-4.66;100.00
56912;BME280;42800;53.928;27.662;2022-12-07T08:53:30;98994.81;;;-4.75;100.00
56912;BME280;42800;53.928;27.662;2022-12-07T08:55:57;98976.63;;;-4.52;100.00
56912;BME280;42800;53.928;27.662;2022-12-07T08:58:24;98988.94;;;-4.71;100.00
56912;BME280;42800;53.928;27.662;2022-12-07T09:00:50;98977.72;;;-4.89;100.00
56912;BME280;42800;53.928;27.662;2022-12-07T09:03:16;98968.88;;;-4.94;100.00
56912;BME280;42800;53.928;27.662;2022-12-07T09:05:44;98975.03;;;-4.84;100.00
56912;BME280;42800;53.928;27.662;2022-12-07T09:08:10;98969.16;;;-4.76;100.00
56912;BME280;42800;53.928;27.662;2022-12-07T09:10:37;98964.63;;;-4.85;100.00
56912;BME280;42800;53.928;27.662;2022-12-07T09:13:03;98967.53;;;-4.66;100.00
56912;BME280;42800;53.928;27.662;2022-12-07T09:15:30;98954.16;;;-4.71;100.00
56912;BME280;42800;53.928;27.662;2022-12-07T09:17:56;98958.97;;;-4.84;100.00
56912;BME280;42800;53.928;27.662;2022-12-07T09:20:23;98949.63;;;-4.81;100.00
56912;BME280;42800;53.928;27.662;2022-12-07T09:22:50;98957.66;;;-4.97;100.00
56912;BME280;42800;53.928;27.662;2022-12-07T09:25:16;98949.66;;;-4.86;100.00
56912;BME280;42800;53.928;27.662;2022-12-07T09:27:42;98946.69;;;-4.80;100.00
56912;BME280;42800;53.928;27.662;2022-12-07T09:30:09;98947.22;;;-4.78;100.00
56912;BME280;42800;53.928;27.662;2022-12-07T09:32:35;98938.38;;;-4.68;100.00
56912;BME280;42800;53.928;27.662;2022-12-07T09:35:02;98927.69;;;-4.63;100.00
56912;BME280;42800;53.928;27.662;2022-12-07T09:37:29;98930.06;;;-4.56;100.00
56912;BME280;42800;53.928;27.662;2022-12-07T09:39:57;98930.88;;;-4.61;100.00
56912;BME280;42800;53.928;27.662;2022-12-07T09:42:28;98927.97;;;-4.80;100.00
56912;BME280;42800;53.928;27.662;2022-12-07T09:44:56;98930.56;;;-4.39;100.00
56912;BME280;42800;53.928;27.662;2022-12-07T09:47:24;98923.13;;;-4.67;100.00
56912;BME280;42800;53.928;27.662;2022-12-07T09:49:50;98923.44;;;-4.79;100.00
56912;BME280;42800;53.928;27.662;2022-12-07T09:52:19;98917.00;;;-4.83;100.00
56912;BME280;42800;53.928;27.662;2022-12-07T09:54:49;98919.41;;;-4.97;100.00
56912;BME280;42800;53.928;27.662;2022-12-07T09:57:16;98906.59;;;-5.05;100.00
56912;BME280;42800;53.928;27.662;2022-12-07T09:59:43;98910.88;;;-4.89;100.00
56912;BME280;42800;53.928;27.662;2022-12-07T10:02:25;98909.50;;;-4.71;100.00
56912;BME280;42800;53.928;27.662;2022-12-07T10:04:54;98902.03;;;-4.94;100.00
56912;BME280;42800;53.928;27.662;2022-12-07T10:07:21;98906.50;;;-4.49;100.00
56912;BME280;42800;53.928;27.662;2022-12-07T10:09:48;98901.19;;;-4.64;100.00
56912;BME280;42800;53.928;27.662;2022-12-07T10:12:14;98891.22;;;-4.43;100.00
56912;BME280;42800;53.928;27.662;2022-12-07T10:14:54;98886.25;;;-4.76;100.00
56912;BME280;42800;53.928;27.662;2022-12-07T10:17:36;98881.72;;;-4.90;100.00
56912;BME280;42800;53.928;27.662;2022-12-07T10:20:19;98880.34;;;-4.78;100.00
56912;BME280;42800;53.928;27.662;2022-12-07T10:23:00;98875.03;;;-4.83;100.00
56912;BME280;42800;53.928;27.662;2022-12-07T10:25:29;98870.69;;;-4.53;100.00
56912;BME280;42800;53.928;27.662;2022-12-07T10:27:58;98867.47;;;-4.60;100.00
56912;BME280;42800;53.928;27.662;2022-12-07T10:30:26;98860.81;;;-4.63;100.00
56912;BME280;42800;53.928;27.662;2022-12-07T10:32:52;98862.63;;;-4.48;100.00
56912;BME280;42800;53.928;27.662;2022-12-07T10:35:23;98858.38;;;-4.59;100.00
56912;BME280;42800;53.928;27.662;2022-12-07T10:37:50;98851.16;;;-4.64;100.00
56912;BME280;42800;53.928;27.662;2022-12-07T10:40:32;98848.94;;;-4.41;100.00
56912;BME280;42800;53.928;27.662;2022-12-07T10:43:04;98840.16;;;-4.57;100.00
56912;BME280;42800;53.928;27.662;2022-12-07T10:45:32;98839.06;;;-4.46;100.00
56912;BME280;42800;53.928;27.662;2022-12-07T10:48:05;98831.78;;;-4.35;100.00
56912;BME280;42800;53.928;27.662;2022-12-07T10:50:45;98837.00;;;-4.64;100.00
56912;BME280;42800;53.928;27.662;2022-12-07T10:53:32;98831.78;;;-4.35;100.00
56912;BME280;42800;53.928;27.662;2022-12-07T10:56:16;98835.03;;;-4.38;100.00
56912;BME280;42800;53.928;27.662;2022-12-07T10:58:58;98830.22;;;-4.41;100.00
56912;BME280;42800;53.928;27.662;2022-12-07T11:01:32;98827.78;;;-4.33;100.00
56912;BME280;42800;53.928;27.662;2022-12-07T11:04:19;98836.59;;;-3.88;100.00
56912;BME280;42800;53.928;27.662;2022-12-07T11:06:54;98837.78;;;-3.65;100.00
56912;BME280;42800;53.928;27.662;2022-12-07T11:12:36;98792.88;;;-4.12;100.00
56912;BME280;42800;53.928;27.662;2022-12-07T11:15:17;98804.59;;;-4.08;100.00
56912;BME280;42800;53.928;27.662;2022-12-07T11:17:51;98809.19;;;-4.14;100.00
56912;BME280;42800;53.928;27.662;2022-12-07T11:20:33;98803.44;;;-4.36;100.00
56912;BME280;42800;53.928;27.662;2022-12-07T11:23:07;98820.69;;;-4.13;100.00
56912;BME280;42800;53.928;27.662;2022-12-07T11:25:45;98820.13;;;-4.10;100.00
56912;BME280;42800;53.928;27.662;2022-12-07T11:28:28;98819.16;;;-4.24;100.00
56912;BME280;42800;53.928;27.662;2022-12-07T11:31:05;98815.69;;;-4.30;100.00
56912;BME280;42800;53.928;27.662;2022-12-07T11:33:42;98811.78;;;-4.43;100.00
56912;BME280;42800;53.928;27.662;2022-12-07T11:36:23;98812.50;;;-4.32;100.00
56912;BME280;42800;53.928;27.662;2022-12-07T11:39:01;98795.41;;;-4.36;100.00
56912;BME280;42800;53.928;27.662;2022-12-07T11:41:32;98795.50;;;-4.07;100.00
56912;BME280;42800;53.928;27.662;2022-12-07T11:44:04;98797.03;;;-4.40;100.00
56912;BME280;42800;53.928;27.662;2022-12-07T11:46:43;98785.13;;;-4.19;100.00
56912;BME280;42800;53.928;27.662;2022-12-07T11:49:14;98776.25;;;-4.14;100.00
56912;BME280;42800;53.928;27.662;2022-12-07T11:51:44;98776.81;;;-4.17;100.00
56912;BME280;42800;53.928;27.662;2022-12-07T11:54:15;98765.78;;;-4.11;100.00
56912;BME280;42800;53.928;27.662;2022-12-07T11:56:45;98775.44;;;-4.10;100.00
56912;BME280;42800;53.928;27.662;2022-12-07T11:59:19;98774.75;;;-3.86;100.00
56912;BME280;42800;53.928;27.662;2022-12-07T12:01:55;98770.28;;;-4.01;100.00
56912;BME280;42800;53.928;27.662;2022-12-07T12:04:41;98768.84;;;-3.88;100.00
56912;BME280;42800;53.928;27.662;2022-12-07T12:07:16;98774.44;;;-4.19;100.00
56912;BME280;42800;53.928;27.662;2022-12-07T12:09:48;98767.53;;;-3.91;100.00
56912;BME280;42800;53.928;27.662;2022-12-07T12:12:46;98762.25;;;-4.01;100.00
56912;BME280;42800;53.928;27.662;2022-12-07T12:15:27;98754.28;;;-4.11;100.00
56912;BME280;42800;53.928;27.662;2022-12-07T12:18:30;98744.53;;;-3.97;100.00
56912;BME280;42800;53.928;27.662;2022-12-07T12:21:04;98746.78;;;-4.09;100.00
56912;BME280;42800;53.928;27.662;2022-12-07T12:23:39;98739.34;;;-4.17;100.00
56912;BME280;42800;53.928;27.662;2022-12-07T12:26:13;98739.47;;;-4.33;100.00
56912;BME280;42800;53.928;27.662;2022-12-07T12:28:48;98737.13;;;-4.05;100.00
56912;BME280;42800;53.928;27.662;2022-12-07T12:31:16;98730.25;;;-4.16;100.00
56912;BME280;42800;53.928;27.662;2022-12-07T12:33:56;98729.16;;;-4.15;100.00
56912;BME280;42800;53.928;27.662;2022-12-07T12:36:25;98727.22;;;-4.05;100.00
56912;BME280;42800;53.928;27.662;2022-12-07T12:39:10;98711.63;;;-3.97;100.00
56912;BME280;42800;53.928;27.662;2022-12-07T12:45:17;98680.97;;;-4.15;100.00
56912;BME280;42800;53.928;27.662;2022-12-07T12:47:57;98673.28;;;-4.22;100.00
56912;BME280;42800;53.928;27.662;2022-12-07T12:50:26;98665.47;;;-4.18;100.00
56912;BME280;42800;53.928;27.662;2022-12-07T12:53:00;98649.53;;;-3.99;100.00
56912;BME280;42800;53.928;27.662;2022-12-07T12:58:41;98639.88;;;-4.30;100.00
56912;BME280;42800;53.928;27.662;2022-12-07T13:07:51;98602.25;;;-4.14;100.00
56912;BME280;42800;53.928;27.662;2022-12-07T13:10:29;98600.16;;;-4.17;100.00